Time;durP1;ratioP1;P1;durP2;ratioP2;P2;SDS_P1;SDS_P2;PMS_P1;PMS_P2;Temp;Humidity;BMP_temperature;BMP_pressure;BME280_temperature;BME280_humidity;BME280_pressure;Samples;Min_cycle;Max_cycle;Signal;HPM_P1;HPM_P2
2023/08/22 00:01:26;;;;;;;1.40;0.73;;;;;;;23.76;50.39;102048.84;16114305;19;130232;-63
2023/08/22 00:06:48;;;;;;;1.63;0.70;;;;;;;23.76;50.67;102036.78;16108843;19;130261;-63
2023/08/22 00:12:10;;;;;;;2.95;1.08;;;;;;;23.74;50.24;102034.28;16112087;19;130459;-63
2023/08/22 00:17:32;;;;;;;1.95;0.82;;;;;;;23.74;50.46;102036.22;16108518;19;130797;-62
2023/08/22 00:22:54;;;;;;;1.30;0.85;;;;;;;23.72;50.20;102042.06;16112027;19;129748;-62
2023/08/22 00:28:16;;;;;;;2.70;0.88;;;;;;;23.72;50.36;102036.47;16109017;19;129936;-63
2023/08/22 00:33:38;;;;;;;1.30;0.80;;;;;;;23.72;50.35;102035.63;16113786;19;134611;-63
2023/08/22 00:39:00;;;;;;;1.10;0.60;;;;;;;23.72;50.59;102018.88;16111949;19;130482;-63
2023/08/22 00:44:23;;;;;;;1.50;0.60;;;;;;;23.70;50.62;102010.72;16107356;19;129726;-63
2023/08/22 00:49:45;;;;;;;1.30;0.77;;;;;;;23.70;50.33;102007.09;16108986;19;129489;-63
2023/08/22 00:55:08;;;;;;;2.38;0.90;;;;;;;23.70;50.60;102004.31;16106371;19;129372;-63
2023/08/22 01:00:30;;;;;;;1.85;0.75;;;;;;;23.68;50.46;102001.78;16107391;19;132195;-63
2023/08/22 01:05:57;;;;;;;0.75;0.70;;;;;;;23.66;50.11;101993.63;16110415;19;129922;-63
2023/08/22 01:11:37;;;;;;;2.15;0.93;;;;;;;23.68;50.20;101989.75;16110081;19;129492;-62
2023/08/22 01:17:00;;;;;;;2.08;1.10;;;;;;;23.65;50.39;101991.94;16121800;19;131623;-62
2023/08/22 01:22:24;;;;;;;1.13;0.80;;;;;;;23.65;50.44;101991.94;16120576;19;129777;-62
2023/08/22 01:27:54;;;;;;;1.30;0.70;;;;;;;23.65;50.62;101986.34;16123571;19;130062;-63
2023/08/22 01:33:24;;;;;;;1.20;0.65;;;;;;;23.64;50.54;101987.44;16120996;19;130768;-63
2023/08/22 01:38:47;;;;;;;0.77;0.65;;;;;;;23.63;50.47;101977.38;16123937;19;129728;-63
2023/08/22 01:44:10;;;;;;;1.83;0.80;;;;;;;23.62;50.52;101986.03;16123410;19;129712;-63
2023/08/22 01:49:35;;;;;;;1.00;0.70;;;;;;;23.62;50.65;101984.09;16119077;19;129484;-63
2023/08/22 01:54:58;;;;;;;1.25;0.80;;;;;;;23.61;50.51;101985.19;16118625;19;129513;-63
2023/08/22 02:00:20;;;;;;;0.80;0.70;;;;;;;23.62;50.52;101980.44;16117858;19;130203;-63
2023/08/22 02:05:41;;;;;;;1.30;0.70;;;;;;;23.60;50.63;101977.91;16120851;19;131688;-62
2023/08/22 02:11:03;;;;;;;1.83;0.70;;;;;;;23.60;50.42;101977.91;16118643;19;132724;-63
2023/08/22 02:16:25;;;;;;;1.73;0.82;;;;;;;23.59;50.60;101975.34;16119218;19;130195;-63
2023/08/22 02:21:48;;;;;;;0.77;0.60;;;;;;;23.58;50.62;101974.53;16122823;19;130558;-63
2023/08/22 02:27:09;;;;;;;2.78;0.65;;;;;;;23.57;50.49;101964.41;16118532;19;129736;-63
2023/08/22 02:32:31;;;;;;;1.27;0.60;;;;;;;23.55;50.52;101947.06;16118744;19;131188;-63
2023/08/22 02:37:53;;;;;;;0.90;0.60;;;;;;;23.56;50.63;101950.72;16129818;19;130633;-65
2023/08/22 02:43:16;;;;;;;1.02;0.70;;;;;;;23.55;50.77;101952.66;16135566;19;129977;-63
2023/08/22 02:48:39;;;;;;;0.77;0.40;;;;;;;23.55;50.93;101946.22;16132378;19;129882;-64
2023/08/22 02:54:01;;;;;;;0.65;0.60;;;;;;;23.54;50.50;101948.16;16125726;19;132208;-64
2023/08/22 02:59:23;;;;;;;1.80;0.70;;;;;;;23.54;50.49;101944.53;16139429;19;129751;-64
2023/08/22 03:04:45;;;;;;;1.48;0.73;;;;;;;23.53;50.57;101948.41;16132099;19;130767;-63
2023/08/22 03:10:10;;;;;;;2.58;0.77;;;;;;;23.52;50.57;101950.34;16130137;19;129872;-63
2023/08/22 03:15:32;;;;;;;1.75;0.80;;;;;;;23.51;50.86;101957.91;16129452;19;130550;-63
2023/08/22 03:20:56;;;;;;;3.15;1.02;;;;;;;23.51;50.48;101957.03;16131735;19;130237;-63
2023/08/22 03:26:18;;;;;;;1.27;0.70;;;;;;;23.50;50.60;101949.78;16130516;19;129794;-63
2023/08/22 03:31:40;;;;;;;1.90;0.88;;;;;;;23.50;50.59;101955.38;16119339;19;130119;-63
2023/08/22 03:37:02;;;;;;;1.38;0.63;;;;;;;23.49;50.60;101950.88;16114228;19;129957;-63
2023/08/22 03:42:24;;;;;;;0.73;0.55;;;;;;;23.48;50.57;101949.19;16114144;19;131622;-64
2023/08/22 03:47:46;;;;;;;2.88;0.80;;;;;;;23.48;50.41;101957.56;16114537;19;131288;-63
2023/08/22 03:53:12;;;;;;;1.08;0.80;;;;;;;23.48;50.44;101954.78;16115907;19;130718;-63
2023/08/22 03:58:34;;;;;;;1.17;0.80;;;;;;;23.47;50.59;101955.88;16114512;19;130607;-63
2023/08/22 04:03:56;;;;;;;0.75;0.75;;;;;;;23.47;50.57;101939.13;16116934;19;129311;-63
2023/08/22 04:09:18;;;;;;;2.53;0.70;;;;;;;23.45;50.63;101935.72;16110389;19;129913;-63
2023/08/22 04:14:40;;;;;;;0.98;0.70;;;;;;;23.44;50.57;101932.09;16114668;19;129658;-63
2023/08/22 04:20:03;;;;;;;0.75;0.60;;;;;;;23.44;50.57;101934.91;16108548;19;130970;-63
2023/08/22 04:25:26;;;;;;;2.25;0.82;;;;;;;23.44;50.74;101936.81;16111317;19;129919;-63
2023/08/22 04:30:48;;;;;;;0.88;0.80;;;;;;;23.43;50.63;101949.97;16110720;19;131259;-63
2023/08/22 04:36:11;;;;;;;1.25;0.63;;;;;;;23.42;50.60;101952.97;16110715;19;129764;-63
2023/08/22 04:41:32;;;;;;;1.10;0.73;;;;;;;23.42;50.72;101952.97;16109035;19;130330;-63
2023/08/22 04:46:54;;;;;;;2.33;0.95;;;;;;;23.41;50.44;101945.69;16110969;19;130626;-63
2023/08/22 04:52:16;;;;;;;0.80;0.47;;;;;;;23.41;50.60;101956.88;16119249;19;130359;-63
2023/08/22 04:57:38;;;;;;;0.88;0.60;;;;;;;23.41;50.56;101962.47;16125660;19;132787;-61
2023/08/22 05:03:01;;;;;;;1.10;0.70;;;;;;;23.40;50.15;101955.19;16124539;19;128912;-63
2023/08/22 05:08:23;;;;;;;0.73;0.70;;;;;;;23.39;50.66;101956.28;16121721;19;131968;-62
2023/08/22 05:13:45;;;;;;;2.05;0.80;;;;;;;23.38;50.43;101951.81;16124558;19;130336;-61
2023/08/22 05:19:07;;;;;;;1.10;0.50;;;;;;;23.39;50.45;101953.47;16120497;19;129503;-62
2023/08/22 05:24:29;;;;;;;0.60;0.60;;;;;;;23.38;50.43;101954.63;16125222;19;130650;-62
2023/08/22 05:29:51;;;;;;;1.35;0.60;;;;;;;23.38;50.54;101955.44;16118148;19;129950;-64
2023/08/22 05:35:13;;;;;;;1.35;0.60;;;;;;;23.38;50.56;101951.81;16123901;19;130205;-62
2023/08/22 05:40:38;;;;;;;0.40;0.40;;;;;;;23.37;50.28;101945.38;16126972;19;131084;-63
2023/08/22 05:46:00;;;;;;;0.60;0.60;;;;;;;23.38;50.77;101952.66;16115359;19;131090;-63
2023/08/22 05:51:22;;;;;;;1.48;0.80;;;;;;;23.39;50.52;101961.88;16120120;19;130635;-63
2023/08/22 05:56:44;;;;;;;0.85;0.40;;;;;;;23.38;50.62;101960.19;16116895;19;130967;-62
2023/08/22 06:02:07;;;;;;;0.88;0.70;;;;;;;23.39;50.55;101978.63;16120724;19;129453;-63
2023/08/22 06:07:30;;;;;;;1.33;0.60;;;;;;;23.39;50.53;101965.53;16122747;19;130020;-63
2023/08/22 06:12:52;;;;;;;1.40;0.77;;;;;;;23.40;50.38;101960.75;16120903;19;131158;-62
2023/08/22 06:18:14;;;;;;;2.35;0.82;;;;;;;23.40;50.35;101983.09;16117075;19;131308;-62
2023/08/22 06:23:36;;;;;;;0.80;0.68;;;;;;;23.41;50.38;101982.00;16120108;19;129579;-63
2023/08/22 06:28:58;;;;;;;1.25;0.80;;;;;;;23.42;50.38;101975.31;16119634;19;129618;-63
2023/08/22 06:34:20;;;;;;;1.27;0.80;;;;;;;23.41;50.59;101985.66;16125352;19;129720;-62
2023/08/22 06:39:42;;;;;;;1.30;0.80;;;;;;;23.42;50.26;101975.31;16122860;19;130442;-63
2023/08/22 06:45:07;;;;;;;1.17;0.80;;;;;;;23.41;50.39;101974.50;16123528;19;129595;-62
2023/08/22 06:50:31;;;;;;;1.63;0.80;;;;;;;23.42;50.29;101986.50;16160730;19;129257;-63
2023/08/22 06:55:56;;;;;;;6.95;0.95;;;;;;;23.42;50.46;101998.53;16196458;19;129625;-63
2023/08/22 07:01:18;;;;;;;;;;;;;;;23.39;50.14;102009.34;16195843;19;129589;-63
2023/08/22 07:06:40;;;;;;;7.25;1.15;;;;;;;23.42;50.04;102008.84;16199407;19;128717;-63
2023/08/22 07:12:03;;;;;;;3.03;1.10;;;;;;;23.42;50.11;102017.22;16200632;19;129512;-63
2023/08/22 07:17:25;;;;;;;3.65;1.00;;;;;;;23.42;50.11;102022.81;16198979;19;129675;-63
2023/08/22 07:22:47;;;;;;;3.28;0.90;;;;;;;23.42;49.86;102014.41;16202240;19;128564;-64
2023/08/22 07:28:09;;;;;;;2.25;1.20;;;;;;;23.42;50.05;102022.81;16198777;19;128275;-62
2023/08/22 07:33:31;;;;;;;2.90;1.13;;;;;;;23.44;50.45;102020.59;16197294;19;129981;-62
2023/08/22 07:38:53;;;;;;;2.15;1.27;;;;;;;23.43;49.83;102022.56;16200917;19;130524;-62
2023/08/22 07:44:15;;;;;;;7.65;1.52;;;;;;;23.44;50.02;102020.59;16196863;19;129669;-63
2023/08/22 07:49:37;;;;;;;6.80;1.65;;;;;;;23.45;49.79;102025.09;16195808;19;130848;-63
2023/08/22 07:54:59;;;;;;;3.90;1.38;;;;;;;23.46;50.24;102026.78;16197921;19;129448;-62
2023/08/22 08:00:22;;;;;;;2.83;1.20;;;;;;;23.47;50.21;102036.88;16197137;19;129251;-63
2023/08/22 08:05:44;;;;;;;4.72;1.40;;;;;;;23.47;49.89;102036.88;16202776;19;132387;-63
2023/08/22 08:11:06;;;;;;;3.53;1.35;;;;;;;23.47;49.96;102042.44;16196062;19;129479;-63
2023/08/22 08:16:28;;;;;;;2.42;1.20;;;;;;;23.47;50.10;102045.25;16194935;19;130392;-63
2023/08/22 08:21:53;;;;;;;6.30;1.30;;;;;;;23.49;49.99;102054.22;16199076;19;128576;-64
2023/08/22 08:27:15;;;;;;;3.22;1.20;;;;;;;23.50;50.11;102048.38;16126500;19;129041;-65
2023/08/22 08:32:37;;;;;;;3.85;1.48;;;;;;;23.51;50.23;102041.69;16117515;19;130845;-66
2023/08/22 08:37:59;;;;;;;3.03;1.30;;;;;;;23.52;49.91;102034.13;16118934;19;130862;-65
2023/08/22 08:43:22;;;;;;;3.25;1.40;;;;;;;23.54;50.11;102042.28;16117682;19;129548;-65
2023/08/22 08:48:45;;;;;;;2.45;1.58;;;;;;;23.54;50.07;102034.75;16114774;19;130795;-66
2023/08/22 08:54:09;;;;;;;3.03;1.38;;;;;;;23.55;49.67;102035.59;16107115;19;133573;-65
2023/08/22 08:59:31;;;;;;;3.13;1.52;;;;;;;23.55;49.98;102042.03;16105019;19;129023;-66
2023/08/22 09:04:53;;;;;;;5.47;1.50;;;;;;;23.55;49.87;102042.03;16107045;19;130348;-66
2023/08/22 09:10:35;;;;;;;3.63;1.27;;;;;;;23.58;49.55;102040.66;16110040;19;130932;-65
2023/08/22 09:16:00;;;;;;;8.50;1.38;;;;;;;23.58;49.47;102044.34;16108455;19;129538;-65
2023/08/22 09:21:22;;;;;;;3.78;1.13;;;;;;;23.61;48.83;102046.66;16106143;19;130349;-65
2023/08/22 09:26:47;;;;;;;3.90;1.60;;;;;;;23.64;48.39;102040.53;16100798;19;131208;-65
2023/08/22 09:32:09;;;;;;;4.90;1.53;;;;;;;23.66;47.75;102049.50;16105398;19;129625;-66
2023/08/22 09:37:32;;;;;;;3.25;1.00;;;;;;;23.69;47.82;102055.69;16116381;19;130333;-65
2023/08/22 09:42:55;;;;;;;5.28;1.35;;;;;;;23.71;47.74;102061.88;16124452;19;129317;-65
2023/08/22 09:48:30;;;;;;;3.47;1.23;;;;;;;23.73;47.81;102046.53;16124075;19;130887;-64
2023/08/22 09:53:59;;;;;;;6.43;1.00;;;;;;;23.74;47.73;102053.00;16122950;19;130054;-65
2023/08/22 09:59:23;;;;;;;6.53;1.05;;;;;;;23.76;47.49;102053.56;16126884;19;130835;-65
2023/08/22 10:04:48;;;;;;;4.85;1.00;;;;;;;23.76;47.45;102047.97;16123332;19;129571;-65
2023/08/22 10:10:10;;;;;;;5.60;0.90;;;;;;;23.77;47.60;102056.13;16121443;19;129844;-65
2023/08/22 10:15:35;;;;;;;4.20;1.20;;;;;;;23.79;47.51;102055.84;16123910;19;131280;-65
2023/08/22 10:20:58;;;;;;;3.72;1.00;;;;;;;23.79;47.29;102062.31;16124153;19;129821;-65
2023/08/22 10:26:21;;;;;;;4.75;1.10;;;;;;;23.81;47.55;102056.44;16124378;19;130897;-65
2023/08/22 10:32:01;;;;;;;3.40;0.98;;;;;;;23.81;47.21;102056.44;16123015;19;129718;-65
2023/08/22 10:37:27;;;;;;;4.00;0.90;;;;;;;23.78;47.38;102046.63;16122743;19;129797;-64
2023/08/22 10:42:52;;;;;;;1.80;0.80;;;;;;;23.78;47.65;102034.59;16124936;19;129602;-65
2023/08/22 10:48:16;;;;;;;6.27;1.53;;;;;;;23.76;47.76;102047.97;16121052;19;129726;-61
2023/08/22 10:53:42;;;;;;;4.37;1.00;;;;;;;23.75;47.89;102029.53;16123334;19;129735;-64
2023/08/22 10:59:04;;;;;;;4.38;0.77;;;;;;;23.74;47.80;102047.41;16122024;19;129263;-64
2023/08/22 11:04:29;;;;;;;3.17;0.90;;;;;;;23.74;47.80;102039.03;16120564;19;129641;-64
2023/08/22 11:09:53;;;;;;;1.80;0.75;;;;;;;23.72;47.86;102046.81;16118597;19;131772;-64
2023/08/22 11:15:17;;;;;;;2.90;0.90;;;;;;;23.74;47.91;102055.78;16120912;19;130081;-65
2023/08/22 11:20:41;;;;;;;2.92;0.90;;;;;;;23.71;47.73;102043.16;16119117;19;131660;-65
2023/08/22 11:26:07;;;;;;;1.85;0.65;;;;;;;23.73;48.09;102051.28;16121003;19;130810;-65
2023/08/22 11:31:29;;;;;;;1.55;0.80;;;;;;;23.72;48.20;102057.97;16117780;19;129421;-63
2023/08/22 11:36:51;;;;;;;3.80;0.95;;;;;;;23.72;48.32;102053.22;16117420;19;130342;-65
2023/08/22 11:42:17;;;;;;;2.15;1.08;;;;;;;23.72;48.34;102046.81;16114960;19;129667;-66
2023/08/22 11:47:49;;;;;;;2.00;0.60;;;;;;;23.73;48.01;102042.91;16117966;19;130217;-66
2023/08/22 11:53:13;;;;;;;2.38;0.80;;;;;;;23.72;48.15;102050.44;16115385;19;130906;-65
2023/08/22 11:58:35;;;;;;;2.03;0.90;;;;;;;23.72;48.14;102046.81;16110959;19;130197;-71
2023/08/22 12:03:57;;;;;;;1.38;0.75;;;;;;;23.72;48.29;102035.63;16117280;19;129447;-71
2023/08/22 12:09:19;;;;;;;0.95;0.50;;;;;;;23.72;48.32;102042.06;16113766;19;130641;-71
2023/08/22 12:14:41;;;;;;;2.55;0.77;;;;;;;23.74;48.01;102039.03;16112412;19;130593;-68
2023/08/22 12:20:03;;;;;;;2.47;0.85;;;;;;;23.74;48.21;102039.03;16114999;19;129669;-70
2023/08/22 12:25:25;;;;;;;2.03;0.80;;;;;;;23.72;48.23;102046.81;16113568;19;130047;-70
2023/08/22 12:30:47;;;;;;;3.42;0.90;;;;;;;23.73;47.92;102040.97;16111897;19;130470;-71
2023/08/22 12:36:09;;;;;;;1.85;0.70;;;;;;;23.73;48.35;102034.53;16112130;19;129933;-69
2023/08/22 12:41:31;;;;;;;3.35;0.70;;;;;;;23.73;48.34;102037.31;16109451;19;129426;-72
2023/08/22 12:46:56;;;;;;;2.15;0.60;;;;;;;23.73;48.39;102034.53;16115396;19;129818;-71
2023/08/22 12:52:18;;;;;;;2.72;0.65;;;;;;;23.73;48.42;102042.91;16115222;19;130265;-71
2023/08/22 12:57:41;;;;;;;1.30;0.80;;;;;;;23.72;48.35;102046.81;16114244;19;130263;-71
2023/08/22 13:03:04;;;;;;;2.80;0.80;;;;;;;23.72;48.62;102021.66;16114012;19;129495;-70
2023/08/22 13:08:26;;;;;;;1.67;0.70;;;;;;;23.73;48.38;102031.75;16110583;19;131108;-71
2023/08/22 13:13:48;;;;;;;2.83;0.95;;;;;;;23.76;48.10;102026.47;16119462;19;131153;-70
2023/08/22 13:19:10;;;;;;;1.92;0.70;;;;;;;23.78;48.17;102020.63;16124732;19;130249;-69
2023/08/22 13:24:35;;;;;;;3.75;0.93;;;;;;;23.82;47.40;102013.44;16125152;19;129492;-71
2023/08/22 13:29:57;;;;;;;2.30;0.50;;;;;;;23.86;46.50;102025.81;16126003;19;130222;-71
2023/08/22 13:35:20;;;;;;;2.60;0.90;;;;;;;23.88;45.01;102015.19;16121291;19;129911;-71
2023/08/22 13:40:42;;;;;;;6.57;0.75;;;;;;;23.91;44.45;102011.91;16121318;19;129902;-63
2023/08/22 13:46:05;;;;;;;5.97;0.88;;;;;;;23.96;43.13;102013.91;16125860;19;129318;-67
2023/08/22 13:51:28;;;;;;;4.32;0.63;;;;;;;24.00;42.83;102017.91;16123340;19;129488;-63
2023/08/22 13:56:50;;;;;;;6.20;0.75;;;;;;;24.04;42.34;102004.25;16128955;19;130131;-70
2023/08/22 14:02:12;;;;;;;3.35;0.80;;;;;;;24.07;41.95;102009.34;16125876;19;130092;-61
2023/08/22 14:07:34;;;;;;;4.00;0.68;;;;;;;24.12;41.92;102010.25;16125887;19;131815;-68
2023/08/22 14:12:56;;;;;;;3.22;0.60;;;;;;;24.16;41.72;102012.53;16124962;19;129648;-65
2023/08/22 14:18:18;;;;;;;4.13;1.00;;;;;;;24.20;41.62;102006.16;16122781;19;131053;-67
2023/08/22 14:23:40;;;;;;;3.78;0.90;;;;;;;24.22;41.58;101994.72;16125400;19;129930;-65
2023/08/22 14:29:02;;;;;;;3.60;0.70;;;;;;;24.26;41.32;101985.56;16122289;19;130253;-65
2023/08/22 14:34:25;;;;;;;4.82;0.85;;;;;;;24.31;41.57;101986.75;16123267;19;129542;-63
2023/08/22 14:39:47;;;;;;;4.32;0.82;;;;;;;24.33;41.32;101977.00;16126264;19;129801;-68
2023/08/22 14:45:09;;;;;;;5.38;1.05;;;;;;;24.36;41.44;101972.84;16128418;19;130374;-63
2023/08/22 14:50:31;;;;;;;8.18;0.98;;;;;;;24.41;41.11;101981.28;16123266;19;129769;-66
2023/08/22 14:55:59;;;;;;;1.38;0.52;;;;;;;24.42;41.28;101980.19;16115505;19;129594;-67
2023/08/22 15:01:22;;;;;;;2.50;0.65;;;;;;;24.43;41.43;101973.47;16117001;19;130396;-67
2023/08/22 15:06:44;;;;;;;6.20;0.80;;;;;;;24.41;41.15;101975.69;16117541;19;129862;-66
2023/08/22 15:12:06;;;;;;;4.32;0.90;;;;;;;24.40;41.19;101969.28;16113921;19;129447;-67
2023/08/22 15:17:30;;;;;;;3.55;1.05;;;;;;;24.38;41.50;101965.03;16117402;19;130359;-66
2023/08/22 15:22:51;;;;;;;7.35;1.10;;;;;;;24.34;42.31;101959.09;16116474;19;130232;-66
2023/08/22 15:28:14;;;;;;;5.70;1.48;;;;;;;24.30;42.39;101962.69;16129543;19;129129;-68
2023/08/22 15:33:36;;;;;;;4.97;0.88;;;;;;;24.26;42.75;101968.78;16122548;19;129156;-68
2023/08/22 15:38:58;;;;;;;4.85;0.90;;;;;;;24.23;42.55;101963.72;16115772;19;129526;-68
2023/08/22 15:44:29;;;;;;;5.82;0.63;;;;;;;24.20;42.73;101955.84;16117188;19;129548;-68
2023/08/22 15:49:52;;;;;;;4.15;0.98;;;;;;;24.19;43.01;101958.88;16115558;19;129590;-68
2023/08/22 15:55:14;;;;;;;3.33;0.70;;;;;;;24.17;43.55;101958.31;16113266;19;129369;-67
2023/08/22 16:00:36;;;;;;;4.43;1.00;;;;;;;24.15;43.57;101955.75;16112982;19;129858;-68
2023/08/22 16:05:59;;;;;;;3.75;0.75;;;;;;;24.14;43.39;101948.47;16112376;19;132418;-68
2023/08/22 16:11:21;;;;;;;2.85;0.73;;;;;;;24.12;43.18;101945.13;16113778;19;129796;-67
2023/08/22 16:16:42;;;;;;;3.67;0.80;;;;;;;24.10;43.63;101942.56;16114035;19;129639;-68
2023/08/22 16:22:04;;;;;;;5.57;0.88;;;;;;;24.11;43.76;101943.44;16110348;19;130455;-68
2023/08/22 16:27:27;;;;;;;3.78;0.80;;;;;;;24.11;43.84;101949.00;16109443;19;131300;-65
2023/08/22 16:32:58;;;;;;;5.90;0.95;;;;;;;24.11;44.19;101943.44;16110782;19;130941;-66
2023/08/22 16:38:21;;;;;;;4.25;0.80;;;;;;;24.10;44.20;101952.91;16106396;19;129788;-65
2023/08/22 16:43:43;;;;;;;4.90;0.80;;;;;;;24.09;43.93;101940.88;16114150;19;130081;-65
2023/08/22 16:49:07;;;;;;;4.68;1.00;;;;;;;24.10;44.40;101931.38;16111705;19;129725;-65
2023/08/22 16:54:29;;;;;;;3.40;1.02;;;;;;;24.10;44.30;101936.97;16105264;19;130489;-63
2023/08/22 16:59:51;;;;;;;6.55;0.90;;;;;;;24.10;44.59;101924.97;16111690;19;131496;-63
2023/08/22 17:05:13;;;;;;;6.22;1.17;;;;;;;24.10;44.53;101931.38;16108622;19;129157;-63
2023/08/22 17:10:35;;;;;;;3.65;0.82;;;;;;;24.09;44.40;101938.06;16106515;19;130664;-63
2023/08/22 17:15:58;;;;;;;8.57;0.77;;;;;;;24.09;44.95;101934.44;16103085;19;131166;-64
2023/08/22 17:21:20;;;;;;;4.72;1.00;;;;;;;24.08;44.57;101932.75;16106515;19;130676;-63
2023/08/22 17:26:43;;;;;;;4.60;0.80;;;;;;;24.08;44.60;101938.34;16110989;19;130507;-64
2023/08/22 17:32:05;;;;;;;4.30;0.90;;;;;;;24.07;44.69;101925.47;16106080;19;129661;-63
2023/08/22 17:37:27;;;;;;;3.13;0.90;;;;;;;24.06;44.58;101923.78;16109023;19;131664;-65
2023/08/22 17:42:50;;;;;;;3.28;0.88;;;;;;;24.08;44.86;101924.38;16111260;19;129922;-63
2023/08/22 17:48:13;;;;;;;5.32;1.13;;;;;;;24.10;44.88;101925.78;16100672;19;130621;-65
2023/08/22 17:53:36;;;;;;;2.47;0.73;;;;;;;24.12;44.93;101917.16;16108637;19;129087;-62
2023/08/22 17:58:58;;;;;;;2.67;0.80;;;;;;;24.15;45.12;101918.59;16114549;19;129119;-63
2023/08/22 18:04:19;;;;;;;4.90;0.75;;;;;;;24.16;45.01;101923.91;16123752;19;132383;-61
2023/08/22 18:09:41;;;;;;;4.32;0.82;;;;;;;24.18;45.51;101918.91;16126540;19;129573;-67
2023/08/22 18:15:04;;;;;;;4.47;0.75;;;;;;;24.18;45.55;101924.50;16118005;19;132211;-65
2023/08/22 18:20:26;;;;;;;4.28;0.85;;;;;;;24.16;45.59;101918.31;16118184;19;129972;-65
2023/08/22 18:25:48;;;;;;;2.53;0.80;;;;;;;24.12;45.63;101928.34;16122512;19;129829;-65
2023/08/22 18:31:16;;;;;;;1.92;0.85;;;;;;;24.10;45.67;101925.78;16117942;19;131642;-65
2023/08/22 18:36:38;;;;;;;1.92;0.73;;;;;;;24.06;45.73;101927.41;16121825;19;130243;-65
2023/08/22 18:42:00;;;;;;;7.68;0.85;;;;;;;24.04;45.73;101931.56;16120183;19;130421;-65
2023/08/22 18:47:22;;;;;;;3.20;0.93;;;;;;;24.02;45.69;101931.84;16120022;19;129682;-65
2023/08/22 18:52:44;;;;;;;3.33;0.70;;;;;;;23.99;45.80;101940.75;16120650;19;134260;-65
2023/08/22 18:58:06;;;;;;;4.57;0.90;;;;;;;23.98;46.15;101944.63;16117896;19;130110;-65
2023/08/22 19:03:28;;;;;;;2.35;0.63;;;;;;;23.95;45.98;101951.59;16119944;19;129134;-65
2023/08/22 19:08:50;;;;;;;2.20;0.80;;;;;;;23.94;45.96;101954.63;16109105;19;129764;-65
2023/08/22 19:14:12;;;;;;;2.42;0.90;;;;;;;23.93;46.16;101951.00;16116874;19;129477;-68
2023/08/22 19:19:34;;;;;;;14.35;1.25;;;;;;;23.93;46.19;101964.97;16121014;19;129788;-62
2023/08/22 19:24:56;;;;;;;5.13;0.77;;;;;;;23.94;46.59;101963.88;16118904;19;129757;-60
2023/08/22 19:30:19;;;;;;;4.70;1.00;;;;;;;23.97;46.74;101968.97;16118467;19;134219;-60
2023/08/22 19:35:40;;;;;;;3.40;0.80;;;;;;;24.00;46.94;101970.38;16121235;19;131444;-60
2023/08/22 19:41:02;;;;;;;3.40;1.00;;;;;;;24.03;46.85;101971.81;16112984;19;131832;-61
2023/08/22 19:46:24;;;;;;;5.88;1.00;;;;;;;24.05;46.75;101967.66;16114652;19;130581;-67
2023/08/22 19:51:46;;;;;;;9.73;1.70;;;;;;;24.07;47.05;101968.22;16122871;19;130823;-67
2023/08/22 19:57:09;;;;;;;10.98;1.00;;;;;;;24.11;47.16;101968.59;16119105;19;130399;-58
2023/08/22 20:02:31;;;;;;;15.55;1.58;;;;;;;24.12;47.03;101971.09;16112802;19;130853;-66
2023/08/22 20:07:55;;;;;;;11.23;1.30;;;;;;;24.13;47.27;101977.53;16115045;19;131175;-66
2023/08/22 20:13:18;;;;;;;12.23;1.02;;;;;;;24.14;47.60;101981.19;16120129;19;130668;-65
2023/08/22 20:18:40;;;;;;;9.68;1.48;;;;;;;24.12;47.35;101979.50;16116653;19;129725;-66
2023/08/22 20:24:02;;;;;;;11.45;1.27;;;;;;;24.11;47.72;101988.16;16117784;19;130484;-64
2023/08/22 20:29:24;;;;;;;10.10;1.13;;;;;;;24.10;47.51;101981.69;16110442;19;131892;-59
2023/08/22 20:34:48;;;;;;;12.15;1.50;;;;;;;24.12;47.34;101979.50;16110290;19;130253;-55
2023/08/22 20:40:10;;;;;;;12.50;1.40;;;;;;;24.15;47.75;101989.31;16113999;19;130253;-60
2023/08/22 20:45:32;;;;;;;17.17;1.50;;;;;;;24.17;47.98;101978.72;16110090;19;131508;-60
2023/08/22 20:50:54;;;;;;;10.18;1.63;;;;;;;24.20;47.72;101980.13;16109340;19;131414;-62
2023/08/22 20:56:16;;;;;;;11.57;1.35;;;;;;;24.20;47.71;101982.94;16110575;19;130735;-61
2023/08/22 21:01:38;;;;;;;7.82;1.23;;;;;;;24.20;47.52;101972.63;16115111;19;130797;-59
2023/08/22 21:07:00;;;;;;;8.68;1.48;;;;;;;24.20;47.51;101981.00;16110622;19;129540;-58
2023/08/22 21:12:22;;;;;;;9.93;1.73;;;;;;;24.20;47.57;101992.19;16112110;19;129755;-58
2023/08/22 21:17:44;;;;;;;3.95;1.10;;;;;;;24.21;47.76;101999.47;16108701;19;130385;-57
2023/08/22 21:23:09;;;;;;;6.45;1.10;;;;;;;24.22;47.74;102001.16;16112222;19;129484;-58
2023/08/22 21:28:32;;;;;;;6.60;1.15;;;;;;;24.22;47.83;101994.72;16113855;19;130016;-58
2023/08/22 21:33:53;;;;;;;6.43;1.55;;;;;;;24.21;47.22;101987.44;16174099;19;130304;-62
2023/08/22 21:39:15;;;;;;;9.63;1.48;;;;;;;24.18;47.23;101988.78;16204669;19;129677;-62
2023/08/22 21:44:37;;;;;;;6.40;1.27;;;;;;;24.16;47.04;101988.19;16204024;19;129414;-61
2023/08/22 21:49:59;;;;;;;9.43;1.13;;;;;;;24.13;47.50;101980.31;16203823;19;129170;-62
2023/08/22 21:55:21;;;;;;;5.97;1.17;;;;;;;24.10;47.34;101994.84;16205571;19;130517;-61
2023/08/22 22:00:43;;;;;;;4.85;1.05;;;;;;;24.08;47.31;101989.50;16176916;19;129346;-63
2023/08/22 22:06:06;;;;;;;5.03;1.10;;;;;;;24.05;47.47;101990.03;16113703;19;130634;-62
2023/08/22 22:11:28;;;;;;;6.03;1.15;;;;;;;24.03;47.60;101997.81;16118972;19;130589;-63
2023/08/22 22:16:50;;;;;;;7.28;1.23;;;;;;;24.01;47.76;102000.03;16118933;19;130218;-62
2023/08/22 22:22:12;;;;;;;4.57;1.10;;;;;;;23.99;47.29;102004.19;16112975;19;129860;-63
2023/08/22 22:27:34;;;;;;;5.25;1.20;;;;;;;23.96;47.44;102003.59;16112184;19;130826;-62
2023/08/22 22:32:56;;;;;;;6.10;1.15;;;;;;;23.95;47.58;102009.44;16118701;19;129402;-62
2023/08/22 22:38:19;;;;;;;4.50;1.13;;;;;;;23.94;47.52;102011.38;16117333;19;131308;-62
2023/08/22 22:43:40;;;;;;;3.47;0.90;;;;;;;23.91;47.82;101995.13;16113399;19;130370;-64
2023/08/22 22:49:02;;;;;;;3.83;1.17;;;;;;;23.90;47.67;101985.03;16120795;19;129672;-63
2023/08/22 22:54:24;;;;;;;3.28;0.80;;;;;;;23.89;47.56;101980.56;16117472;19;129784;-62
2023/08/22 22:59:46;;;;;;;4.15;1.02;;;;;;;23.87;47.44;101977.19;16118260;19;132001;-63
2023/08/22 23:05:08;;;;;;;1.85;0.90;;;;;;;23.87;47.50;101980.00;16115915;19;130429;-63
2023/08/22 23:10:30;;;;;;;1.77;0.80;;;;;;;23.85;47.47;101987.78;16116105;19;129627;-63
2023/08/22 23:15:54;;;;;;;3.55;0.93;;;;;;;23.84;47.48;101988.03;16104224;19;129920;-63
2023/08/22 23:21:15;;;;;;;6.22;1.15;;;;;;;23.82;47.72;101985.50;16114909;19;130954;-64
2023/08/22 23:26:37;;;;;;;2.70;0.80;;;;;;;23.81;47.69;101983.78;16116330;19;130274;-63
2023/08/22 23:31:59;;;;;;;3.90;1.10;;;;;;;23.81;47.65;101989.38;16115243;19;132622;-64
2023/08/22 23:37:21;;;;;;;2.35;0.70;;;;;;;23.80;47.38;101987.69;16115663;19;130495;-63
2023/08/22 23:42:43;;;;;;;8.40;1.00;;;;;;;23.77;47.82;101979.81;16115693;19;131243;-63
2023/08/22 23:48:05;;;;;;;4.50;0.90;;;;;;;23.77;47.77;101988.19;16118193;19;131142;-63
2023/08/22 23:53:27;;;;;;;3.03;0.93;;;;;;;23.75;47.63;101973.66;16112407;19;130953;-63
2023/08/22 23:58:49;;;;;;;2.30;0.88;;;;;;;23.74;47.70;101970.00;16114067;19;130233;-62
